Time;durP1;ratioP1;P1;durP2;ratioP2;P2;SDS_P1;SDS_P2;PMS_P1;PMS_P2;Temp;Humidity;BMP_temperature;BMP_pressure;BME280_temperature;BME280_humidity;BME280_pressure;Samples;Min_cycle;Max_cycle;Signal;HPM_P1;HPM_P2
2021/06/19 00:00:05;;;;;;;;;;;;;;;21.72;62.76;95821.06;1049789;28;19900;-48
2021/06/19 00:00:36;;;;;;;;;;;;;;;21.71;62.43;95827.47;1049697;28;19904;-51
2021/06/19 00:01:06;;;;;;;;;;;;;;;21.65;62.42;95830.19;1049781;28;19904;-50
2021/06/19 00:01:37;;;;;;;;;;;;;;;21.61;62.67;95825.66;1049840;28;19900;-49
2021/06/19 00:02:07;;;;;;;;;;;;;;;21.59;62.94;95833.13;1049787;28;20379;-50
2021/06/19 00:02:38;;;;;;;;;;;;;;;21.53;63.00;95836.91;1049792;28;19991;-49
2021/06/19 00:03:08;;;;;;;;;;;;;;;21.48;63.19;95835.00;1049820;28;19901;-51
2021/06/19 00:03:38;;;;;;;;;;;;;;;21.38;63.84;95829.66;1049912;28;19952;-49
2021/06/19 00:04:09;;;;;;;;;;;;;;;21.31;64.36;95838.00;1049804;28;20349;-50
2021/06/19 00:04:39;;;;;;;;;;;;;;;21.28;64.44;95831.28;1049820;28;19900;-48
2021/06/19 00:05:10;;;;;;;;;;;;;;;21.21;64.80;95838.00;1049948;28;19901;-48
2021/06/19 00:05:40;;;;;;;;;;;;;;;21.19;64.60;95834.81;1045627;28;19987;-50
2021/06/19 00:06:11;;;;;;;;;;;;;;;21.17;65.03;95835.06;1045470;28;19954;-49
2021/06/19 00:06:41;;;;;;;;;;;;;;;21.16;64.94;95838.81;1041118;28;19901;-50
2021/06/19 00:07:11;;;;;;;;;;;;;;;21.15;65.76;95841.75;1037407;28;19947;-50
2021/06/19 00:07:42;;;;;;;;;;;;;;;21.11;65.45;95839.63;1045600;28;20277;-49
2021/06/19 00:08:13;;;;;;;;;;;;;;;21.07;65.42;95845.78;1045487;28;19959;-48
2021/06/19 00:08:43;;;;;;;;;;;;;;;21.02;65.75;95851.16;1049588;28;19909;-50
2021/06/19 00:09:13;;;;;;;;;;;;;;;20.94;66.09;95847.94;1049746;28;19908;-49
2021/06/19 00:09:43;;;;;;;;;;;;;;;20.92;66.23;95855.44;1050094;28;19949;-49
2021/06/19 00:10:14;;;;;;;;;;;;;;;20.87;66.73;95844.72;1049976;28;19961;-49
2021/06/19 00:10:44;;;;;;;;;;;;;;;20.85;66.86;95856.78;1049858;28;19965;-49
2021/06/19 00:11:14;;;;;;;;;;;;;;;20.80;67.09;95841.53;1049837;28;19915;-47
2021/06/19 00:11:45;;;;;;;;;;;;;;;20.76;66.99;95846.59;1049977;28;19954;-48
2021/06/19 00:12:16;;;;;;;;;;;;;;;20.74;67.22;95851.41;1049807;28;20367;-50
2021/06/19 00:12:47;;;;;;;;;;;;;;;20.71;67.11;95853.78;1049700;28;19941;-49
2021/06/19 00:13:17;;;;;;;;;;;;;;;20.67;67.16;95853.53;1049613;28;20003;-49
2021/06/19 00:13:47;;;;;;;;;;;;;;;20.68;67.13;95862.34;1049609;28;19909;-49
2021/06/19 00:14:18;;;;;;;;;;;;;;;20.67;67.32;95858.09;1049299;28;19958;-50
2021/06/19 00:14:48;;;;;;;;;;;;;;;20.66;66.80;95864.50;1049980;28;20349;-48
2021/06/19 00:15:19;;;;;;;;;;;;;;;20.64;67.16;95859.38;1049831;28;19915;-49
2021/06/19 00:15:50;;;;;;;;;;;;;;;20.62;67.04;95860.72;1049521;28;19995;-49
2021/06/19 00:16:22;;;;;;;;;;;;;;;20.63;67.45;95856.97;1049533;28;19919;-49
2021/06/19 00:16:52;;;;;;;;;;;;;;;20.63;66.89;95856.97;1049547;28;20300;-49
2021/06/19 00:17:23;;;;;;;;;;;;;;;20.58;66.89;95860.44;1049504;28;19900;-49
2021/06/19 00:17:53;;;;;;;;;;;;;;;20.58;67.09;95863.13;1049808;28;19934;-48
2021/06/19 00:18:24;;;;;;;;;;;;;;;20.58;67.00;95861.25;1049728;28;19942;-50
2021/06/19 00:18:54;;;;;;;;;;;;;;;20.58;66.55;95863.91;1049988;28;20277;-49
2021/06/19 00:19:25;;;;;;;;;;;;;;;20.65;67.48;95857.50;1047730;28;19908;-54
2021/06/19 00:19:55;;;;;;;;;;;;;;;20.66;66.52;95856.47;1045213;28;19924;-53
2021/06/19 00:20:25;;;;;;;;;;;;;;;20.65;66.23;95860.19;1044860;28;19908;-49
2021/06/19 00:20:56;;;;;;;;;;;;;;;20.65;66.34;95844.97;1044697;28;19942;-47
2021/06/19 00:21:26;;;;;;;;;;;;;;;20.66;66.37;95851.91;1045034;28;19917;-50
2021/06/19 00:21:56;;;;;;;;;;;;;;;20.63;66.16;95846.28;1044722;28;19931;-47
2021/06/19 00:22:26;;;;;;;;;;;;;;;20.65;65.92;95853.00;1045029;28;19913;-48
2021/06/19 00:22:57;;;;;;;;;;;;;;;20.67;66.79;95848.19;1044403;28;19959;-48
2021/06/19 00:23:28;;;;;;;;;;;;;;;20.72;66.09;95850.84;1044638;28;19917;-48
2021/06/19 00:23:58;;;;;;;;;;;;;;;20.72;66.51;95847.38;1044663;28;19999;-52
2021/06/19 00:24:28;;;;;;;;;;;;;;;20.74;66.65;95853.25;1044929;28;19916;-51
2021/06/19 00:24:59;;;;;;;;;;;;;;;20.72;66.43;95853.53;1044317;28;20430;-49
2021/06/19 00:25:29;;;;;;;;;;;;;;;20.76;66.38;95851.13;1044563;28;19908;-48
2021/06/19 00:25:59;;;;;;;;;;;;;;;20.91;66.76;95845.78;1044162;28;19909;-51
2021/06/19 00:26:29;;;;;;;;;;;;;;;20.97;66.29;95859.16;1044914;28;20277;-48
2021/06/19 00:27:00;;;;;;;;;;;;;;;20.93;65.67;95851.66;1045089;28;19901;-49
2021/06/19 00:27:30;;;;;;;;;;;;;;;20.99;65.59;95857.03;1044623;28;19974;-51
2021/06/19 00:28:00;;;;;;;;;;;;;;;20.96;65.33;95858.38;1045515;28;20366;-48
2021/06/19 00:28:31;;;;;;;;;;;;;;;20.98;65.60;95855.41;1045924;28;20254;-48
2021/06/19 00:29:04;;;;;;;;;;;;;;;21.08;65.78;95852.75;1045763;28;19904;-51
2021/06/19 00:29:35;;;;;;;;;;;;;;;21.17;64.62;95855.69;1045536;28;19909;-47
2021/06/19 00:30:06;;;;;;;;;;;;;;;21.25;64.62;95857.81;1041227;28;19948;-49
2021/06/19 00:30:36;;;;;;;;;;;;;;;21.28;64.29;95860.75;1041495;28;19905;-48
2021/06/19 00:31:06;;;;;;;;;;;;;;;21.31;64.71;95862.09;1041592;28;19943;-48
2021/06/19 00:31:36;;;;;;;;;;;;;;;21.37;64.49;95866.38;1045493;28;19995;-47
2021/06/19 00:32:07;;;;;;;;;;;;;;;21.45;64.30;95862.34;1045498;28;19905;-48
2021/06/19 00:32:37;;;;;;;;;;;;;;;21.39;63.30;95864.25;1045484;28;19959;-49
2021/06/19 00:33:07;;;;;;;;;;;;;;;21.34;63.35;95866.13;1044413;28;20030;-50
2021/06/19 00:33:38;;;;;;;;;;;;;;;21.28;63.83;95863.41;1044832;28;19916;-48
2021/06/19 00:34:08;;;;;;;;;;;;;;;21.29;64.29;95875.75;1044849;28;19905;-50
2021/06/19 00:34:38;;;;;;;;;;;;;;;21.39;63.99;95868.78;1045123;28;19905;-48
2021/06/19 00:35:09;;;;;;;;;;;;;;;21.43;63.66;95864.50;1042702;28;20024;-51
2021/06/19 00:35:39;;;;;;;;;;;;;;;21.37;63.22;95870.94;1044696;28;19911;-49
2021/06/19 00:36:09;;;;;;;;;;;;;;;21.40;63.80;95873.06;1044442;28;20281;-48
2021/06/19 00:36:40;;;;;;;;;;;;;;;21.39;62.58;95874.94;1044571;28;19905;-51
2021/06/19 00:37:11;;;;;;;;;;;;;;;21.40;62.34;95886.44;1043841;28;19912;-51
2021/06/19 00:37:41;;;;;;;;;;;;;;;21.39;62.30;95880.31;1044533;28;19905;-53
2021/06/19 00:38:11;;;;;;;;;;;;;;;21.38;62.21;95883.22;1043809;28;20219;-51
2021/06/19 00:38:42;;;;;;;;;;;;;;;21.37;62.18;95877.06;1044166;28;20353;-51
2021/06/19 00:39:12;;;;;;;;;;;;;;;21.37;61.92;95887.00;1043867;28;19913;-51
2021/06/19 00:39:42;;;;;;;;;;;;;;;21.35;61.88;95884.59;1044381;28;19912;-48
2021/06/19 00:40:13;;;;;;;;;;;;;;;21.33;62.58;95885.91;1044109;28;19912;-49
2021/06/19 00:40:43;;;;;;;;;;;;;;;21.30;63.02;95887.25;1043647;28;20258;-53
2021/06/19 00:41:13;;;;;;;;;;;;;;;21.26;63.24;95880.84;1043838;28;19919;-48
2021/06/19 00:41:44;;;;;;;;;;;;;;;21.21;63.34;95878.16;1044220;28;19905;-49
2021/06/19 00:42:20;;;;;;;;;;;;;;;21.21;63.97;95884.34;1044119;28;20310;-48
2021/06/19 00:42:55;;;;;;;;;;;;;;;21.18;64.11;95878.69;1044495;28;19908;-48
2021/06/19 00:43:25;;;;;;;;;;;;;;;21.15;63.68;95877.38;1044200;28;19908;-49
2021/06/19 00:43:57;;;;;;;;;;;;;;;21.12;63.73;95880.59;1045182;28;19912;-48
2021/06/19 00:44:28;;;;;;;;;;;;;;;21.09;64.00;95875.78;1043840;28;20937;-51
2021/06/19 00:44:58;;;;;;;;;;;;;;;21.11;64.62;95878.97;1043611;28;19983;-49
2021/06/19 00:45:29;;;;;;;;;;;;;;;21.17;64.92;95871.75;1043924;28;19962;-51
2021/06/19 00:46:00;;;;;;;;;;;;;;;21.18;64.30;95871.50;1039167;28;20419;-50
2021/06/19 00:46:30;;;;;;;;;;;;;;;21.16;64.71;95870.94;1035579;28;19937;-49
2021/06/19 00:47:00;;;;;;;;;;;;;;;21.19;64.44;95869.59;1034922;28;19909;-48
2021/06/19 00:47:31;;;;;;;;;;;;;;;21.21;64.87;95870.13;1035121;28;19909;-50
2021/06/19 00:48:05;;;;;;;;;;;;;;;21.26;64.36;95875.50;1039775;28;19909;-50
2021/06/19 00:48:35;;;;;;;;;;;;;;;21.30;64.52;95868.50;1035643;28;20381;-52
2021/06/19 00:49:05;;;;;;;;;;;;;;;21.33;64.24;95869.84;1039898;28;19917;-54
2021/06/19 00:49:36;;;;;;;;;;;;;;;21.29;63.72;95873.06;1039639;28;19941;-48
2021/06/19 00:50:07;;;;;;;;;;;;;;;21.28;64.10;95873.34;1039356;28;19912;-48
2021/06/19 00:50:37;;;;;;;;;;;;;;;21.23;64.19;95876.03;1044350;28;20346;-48
2021/06/19 00:51:07;;;;;;;;;;;;;;;21.23;64.04;95876.03;1043127;28;19930;-48
2021/06/19 00:51:38;;;;;;;;;;;;;;;21.22;63.84;95882.44;1043310;28;19913;-48
2021/06/19 00:52:08;;;;;;;;;;;;;;;21.21;64.70;95873.63;1039692;28;19905;-48
2021/06/19 00:52:41;;;;;;;;;;;;;;;21.23;65.02;95873.34;1039766;28;20336;-48
2021/06/19 00:53:11;;;;;;;;;;;;;;;21.28;64.81;95878.69;1031423;28;19913;-51
2021/06/19 00:53:41;;;;;;;;;;;;;;;21.33;64.93;95875.22;1031480;28;19964;-47
2021/06/19 00:54:12;;;;;;;;;;;;;;;21.36;64.56;95878.13;1035265;28;19913;-51
2021/06/19 00:54:42;;;;;;;;;;;;;;;21.30;64.12;95871.19;1035609;28;19909;-48
2021/06/19 00:55:12;;;;;;;;;;;;;;;21.24;64.23;95873.09;1044486;28;19909;-49
2021/06/19 00:55:43;;;;;;;;;;;;;;;21.21;64.60;95870.94;1043957;28;19994;-48
2021/06/19 00:56:13;;;;;;;;;;;;;;;21.21;64.17;95865.59;1042967;28;19913;-50
2021/06/19 00:56:43;;;;;;;;;;;;;;;21.31;64.88;95867.44;1043547;28;20731;-50
2021/06/19 00:57:14;;;;;;;;;;;;;;;21.32;64.08;95855.66;1043211;28;20652;-49
2021/06/19 00:57:44;;;;;;;;;;;;;;;21.34;63.63;95855.41;1044736;28;19905;-51
2021/06/19 00:58:14;;;;;;;;;;;;;;;21.28;63.47;95860.75;1044065;28;19999;-53
2021/06/19 00:58:45;;;;;;;;;;;;;;;21.35;63.91;95857.81;1044325;28;19963;-50
2021/06/19 00:59:15;;;;;;;;;;;;;;;21.36;63.55;95853.25;1040887;28;19905;-48
2021/06/19 00:59:45;;;;;;;;;;;;;;;21.39;63.34;95858.06;1045220;28;19909;-48
2021/06/19 01:00:16;;;;;;;;;;;;;;;21.33;62.79;95853.78;1039763;28;19975;-52
2021/06/19 01:00:46;;;;;;;;;;;;;;;21.32;63.09;95852.16;1039911;28;19904;-49
2021/06/19 01:01:17;;;;;;;;;;;;;;;21.41;63.98;95846.00;1043115;28;19909;-49
2021/06/19 01:01:47;;;;;;;;;;;;;;;21.60;63.71;95858.84;1037642;28;19988;-47
2021/06/19 01:02:17;;;;;;;;;;;;;;;21.61;62.70;95852.44;1043332;28;19909;-53
2021/06/19 01:02:48;;;;;;;;;;;;;;;21.55;62.53;95857.00;1043706;28;19961;-51
2021/06/19 01:03:18;;;;;;;;;;;;;;;21.53;62.53;95864.50;1043579;28;19904;-50
2021/06/19 01:03:49;;;;;;;;;;;;;;;21.50;62.46;95870.41;1043294;28;20041;-51
2021/06/19 01:04:19;;;;;;;;;;;;;;;21.45;62.57;95860.47;1038660;28;20376;-52
2021/06/19 01:04:49;;;;;;;;;;;;;;;21.42;62.70;95873.59;1040001;28;20331;-49
2021/06/19 01:05:19;;;;;;;;;;;;;;;21.37;62.70;95873.59;1040189;28;19905;-51
2021/06/19 01:05:51;;;;;;;;;;;;;;;21.32;63.14;95878.94;1039454;28;19909;-48
2021/06/19 01:06:21;;;;;;;;;;;;;;;21.28;63.22;95884.06;1044121;28;20273;-48
2021/06/19 01:06:51;;;;;;;;;;;;;;;21.27;62.98;95885.13;1043711;28;19959;-49
2021/06/19 01:07:22;;;;;;;;;;;;;;;21.24;63.17;95878.44;1043232;28;19908;-47
2021/06/19 01:07:52;;;;;;;;;;;;;;;21.23;62.93;95873.34;1043709;28;19909;-49
2021/06/19 01:08:23;;;;;;;;;;;;;;;21.21;63.80;95876.31;1035282;28;19924;-48
2021/06/19 01:08:53;;;;;;;;;;;;;;;21.16;63.70;95867.47;1035888;28;19958;-46
2021/06/19 01:09:26;;;;;;;;;;;;;;;21.17;63.42;95871.75;1036218;28;19968;-48
2021/06/19 01:09:56;;;;;;;;;;;;;;;21.17;63.42;95869.88;1040202;28;19919;-49
2021/06/19 01:10:27;;;;;;;;;;;;;;;21.23;63.62;95871.47;1043618;28;19912;-49
2021/06/19 01:10:57;;;;;;;;;;;;;;;21.33;63.54;95875.22;1043828;28;19947;-51
2021/06/19 01:11:29;;;;;;;;;;;;;;;21.40;63.42;95878.41;1035157;28;20055;-50
2021/06/19 01:11:59;;;;;;;;;;;;;;;21.39;63.36;95872.28;1032190;28;19917;-48
2021/06/19 01:12:30;;;;;;;;;;;;;;;21.41;62.79;95877.34;1031662;28;19920;-50
2021/06/19 01:13:00;;;;;;;;;;;;;;;21.35;62.53;95876.56;1035987;28;19917;-48
2021/06/19 01:13:31;;;;;;;;;;;;;;;21.39;63.73;95872.28;1043814;28;19909;-50
2021/06/19 01:14:01;;;;;;;;;;;;;;;21.53;63.99;95879.75;1044372;28;20399;-50
2021/06/19 01:14:32;;;;;;;;;;;;;;;21.60;62.91;95880.28;1043932;28;19908;-49
2021/06/19 01:15:02;;;;;;;;;;;;;;;21.63;63.01;95880.53;1045112;28;19905;-46
2021/06/19 01:15:32;;;;;;;;;;;;;;;21.60;62.45;95878.41;1045119;28;19957;-48
2021/06/19 01:16:03;;;;;;;;;;;;;;;21.60;62.46;95881.06;1045292;28;19909;-50
2021/06/19 01:16:33;;;;;;;;;;;;;;;21.60;62.79;95881.06;1045325;28;19909;-48
2021/06/19 01:17:03;;;;;;;;;;;;;;;21.62;63.03;95881.63;1045347;28;19908;-50
2021/06/19 01:17:34;;;;;;;;;;;;;;;21.67;62.80;95885.34;1045278;28;19908;-50
2021/06/19 01:18:04;;;;;;;;;;;;;;;21.57;62.36;95892.34;1044984;28;19908;-49
2021/06/19 01:18:35;;;;;;;;;;;;;;;21.57;62.84;95895.00;1044981;28;19915;-51
2021/06/19 01:19:05;;;;;;;;;;;;;;;21.55;62.01;95891.81;1045062;28;19913;-51
2021/06/19 01:19:35;;;;;;;;;;;;;;;21.54;62.62;95892.09;1045090;28;19947;-49
2021/06/19 01:20:07;;;;;;;;;;;;;;;21.51;62.50;95898.78;1044952;28;19909;-48
2021/06/19 01:20:37;;;;;;;;;;;;;;;21.48;62.58;95889.41;1045003;28;19912;-48
2021/06/19 01:21:14;;;;;;;;;;;;;;;21.51;62.34;95897.97;1045158;28;19913;-48
2021/06/19 01:21:44;;;;;;;;;;;;;;;21.46;62.60;95891.53;1045091;28;19909;-51
2021/06/19 01:22:15;;;;;;;;;;;;;;;21.46;62.45;95898.75;1045312;28;19966;-48
2021/06/19 01:22:46;;;;;;;;;;;;;;;21.44;62.63;95891.00;1045036;28;19909;-49
2021/06/19 01:23:16;;;;;;;;;;;;;;;21.44;63.03;95888.31;1040858;28;19909;-49
2021/06/19 01:23:47;;;;;;;;;;;;;;;21.38;63.65;95888.56;1041006;28;19959;-48
2021/06/19 01:24:17;;;;;;;;;;;;;;;21.37;62.95;95887.00;1040858;28;20431;-51
2021/06/19 01:24:47;;;;;;;;;;;;;;;21.38;63.01;95888.56;1041011;28;19916;-49
2021/06/19 01:25:18;;;;;;;;;;;;;;;21.35;63.44;95889.13;1045054;28;20341;-47
2021/06/19 01:25:49;;;;;;;;;;;;;;;21.35;63.59;95889.94;1045096;28;19909;-52
2021/06/19 01:26:20;;;;;;;;;;;;;;;21.36;63.52;95890.72;1045060;28;19901;-52
2021/06/19 01:26:50;;;;;;;;;;;;;;;21.35;63.49;95891.78;1045397;28;19900;-49
2021/06/19 01:27:24;;;;;;;;;;;;;;;21.37;63.62;95893.16;1045382;28;19948;-48
2021/06/19 01:27:54;;;;;;;;;;;;;;;21.35;63.55;95894.47;1045548;28;20250;-49
2021/06/19 01:28:24;;;;;;;;;;;;;;;21.35;63.63;95899.84;1045359;28;20026;-49
2021/06/19 01:28:55;;;;;;;;;;;;;;;21.36;63.46;95902.25;1045467;28;19908;-50
2021/06/19 01:29:25;;;;;;;;;;;;;;;21.34;63.63;95901.72;1045473;28;19913;-48
2021/06/19 01:29:56;;;;;;;;;;;;;;;21.31;63.78;95894.22;1045472;28;19913;-48
2021/06/19 01:30:28;;;;;;;;;;;;;;;21.30;63.98;95903.31;1045469;28;19958;-56
2021/06/19 01:30:58;;;;;;;;;;;;;;;21.24;64.15;95897.19;1045031;28;19912;-50
2021/06/19 01:31:29;;;;;;;;;;;;;;;21.27;64.23;95896.66;1045288;28;19909;-49
2021/06/19 01:31:59;;;;;;;;;;;;;;;21.30;64.35;95893.44;1041182;28;19980;-49
2021/06/19 01:32:38;;;;;;;;;;;;;;;21.32;64.24;95889.66;1036775;28;19948;-49
2021/06/19 01:33:08;;;;;;;;;;;;;;;21.33;64.08;95886.72;1041118;28;19909;-50
2021/06/19 01:33:39;;;;;;;;;;;;;;;21.35;64.10;95886.44;1042443;28;19909;-47
2021/06/19 01:34:09;;;;;;;;;;;;;;;21.34;64.18;95892.88;1045224;28;19908;-48
2021/06/19 01:34:40;;;;;;;;;;;;;;;21.34;63.82;95882.97;1045356;28;20277;-48
2021/06/19 01:35:10;;;;;;;;;;;;;;;21.32;64.20;95884.31;1045447;28;20341;-48
2021/06/19 01:35:41;;;;;;;;;;;;;;;21.32;64.08;95887.81;1045558;28;20365;-48
2021/06/19 01:36:11;;;;;;;;;;;;;;;21.33;64.05;95891.28;1045490;28;19909;-48
2021/06/19 01:36:41;;;;;;;;;;;;;;;21.32;64.03;95890.47;1045444;28;19948;-48
2021/06/19 01:37:15;;;;;;;;;;;;;;;21.34;64.11;95887.53;1045434;28;19900;-47
2021/06/19 01:37:49;;;;;;;;;;;;;;;21.31;64.03;95891.53;1045284;28;20388;-47
2021/06/19 01:38:20;;;;;;;;;;;;;;;21.34;64.21;95892.88;1045378;28;19908;-47
2021/06/19 01:38:51;;;;;;;;;;;;;;;21.33;64.03;95893.94;1045393;28;20008;-47
2021/06/19 01:39:21;;;;;;;;;;;;;;;21.32;63.99;95889.66;1045420;28;19913;-48
2021/06/19 01:39:51;;;;;;;;;;;;;;;21.29;64.17;95885.66;1045484;28;20022;-49
2021/06/19 01:40:25;;;;;;;;;;;;;;;21.30;64.46;95884.56;1045070;28;19909;-48
2021/06/19 01:40:56;;;;;;;;;;;;;;;21.27;64.18;95893.16;1045320;28;19912;-48
2021/06/19 01:41:29;;;;;;;;;;;;;;;21.26;64.36;95892.34;1041026;28;20011;-47
2021/06/19 01:42:00;;;;;;;;;;;;;;;21.26;64.18;95884.31;1041743;28;19943;-47
2021/06/19 01:42:30;;;;;;;;;;;;;;;21.23;64.40;95887.53;1040975;28;19963;-47
2021/06/19 01:43:00;;;;;;;;;;;;;;;21.25;64.31;95885.38;1041546;28;20014;-48
2021/06/19 01:43:31;;;;;;;;;;;;;;;21.23;64.53;95884.06;1045223;28;20389;-49
2021/06/19 01:44:01;;;;;;;;;;;;;;;21.24;64.66;95886.47;1045067;28;19958;-49
2021/06/19 01:44:32;;;;;;;;;;;;;;;21.22;64.57;95885.13;1045219;28;20365;-48
2021/06/19 01:45:03;;;;;;;;;;;;;;;21.20;64.80;95879.25;1045562;28;19915;-48
2021/06/19 01:45:33;;;;;;;;;;;;;;;21.24;64.77;95891.00;1045801;28;20004;-47
2021/06/19 01:46:04;;;;;;;;;;;;;;;21.25;64.81;95889.94;1044938;28;19915;-50
2021/06/19 01:46:35;;;;;;;;;;;;;;;21.26;64.54;95886.19;1045014;28;19955;-47
2021/06/19 01:47:05;;;;;;;;;;;;;;;21.29;64.49;95883.78;1045209;28;19995;-48
2021/06/19 01:47:35;;;;;;;;;;;;;;;21.26;64.28;95884.31;1045292;28;19938;-48
2021/06/19 01:48:07;;;;;;;;;;;;;;;21.28;64.37;95882.16;1045267;28;19975;-48
2021/06/19 01:48:37;;;;;;;;;;;;;;;21.28;64.28;95874.13;1045398;28;20058;-47
2021/06/19 01:49:08;;;;;;;;;;;;;;;21.26;64.53;95881.66;1045412;28;19974;-48
2021/06/19 01:49:38;;;;;;;;;;;;;;;21.25;64.37;95885.38;1045303;28;19905;-47
2021/06/19 01:50:09;;;;;;;;;;;;;;;21.29;64.21;95878.44;1045551;28;19932;-47
2021/06/19 01:50:40;;;;;;;;;;;;;;;21.28;64.45;95876.03;1045225;28;20046;-48
2021/06/19 01:51:10;;;;;;;;;;;;;;;21.20;64.68;95880.03;1045251;28;19939;-48
2021/06/19 01:51:41;;;;;;;;;;;;;;;21.20;64.71;95877.38;1045074;28;19920;-48
2021/06/19 01:52:11;;;;;;;;;;;;;;;21.24;64.91;95878.44;1045345;28;19905;-49
2021/06/19 01:52:41;;;;;;;;;;;;;;;21.35;64.83;95873.88;1045509;28;19909;-49
2021/06/19 01:53:11;;;;;;;;;;;;;;;21.32;64.40;95871.75;1045385;28;19905;-49
2021/06/19 01:53:42;;;;;;;;;;;;;;;21.28;64.17;95876.81;1045017;28;19904;-48
2021/06/19 01:54:12;;;;;;;;;;;;;;;21.35;64.25;95875.72;1045007;28;19912;-49
2021/06/19 01:54:43;;;;;;;;;;;;;;;21.36;64.27;95878.13;1044993;28;19980;-48
2021/06/19 01:55:13;;;;;;;;;;;;;;;21.37;64.25;95873.59;1045026;28;19958;-48
2021/06/19 01:55:45;;;;;;;;;;;;;;;21.47;64.11;95881.63;1045540;28;19962;-52
2021/06/19 01:56:15;;;;;;;;;;;;;;;21.45;63.79;95875.72;1045725;28;19904;-48
2021/06/19 01:56:46;;;;;;;;;;;;;;;21.41;63.69;95874.69;1045006;28;19908;-48
2021/06/19 01:57:16;;;;;;;;;;;;;;;21.48;64.13;95877.84;1045087;28;19950;-48
2021/06/19 01:57:46;;;;;;;;;;;;;;;21.46;63.94;95869.31;1045128;28;19959;-48
2021/06/19 01:58:17;;;;;;;;;;;;;;;21.46;63.70;95871.97;1040793;28;19905;-49
2021/06/19 01:58:47;;;;;;;;;;;;;;;21.53;63.36;95869.88;1045101;28;20272;-49
2021/06/19 01:59:17;;;;;;;;;;;;;;;21.52;63.22;95870.13;1045130;28;19905;-48
2021/06/19 01:59:48;;;;;;;;;;;;;;;21.46;63.16;95874.66;1045039;28;19904;-48
2021/06/19 02:00:19;;;;;;;;;;;;;;;21.44;63.28;95876.81;1045434;28;20000;-48
2021/06/19 02:00:49;;;;;;;;;;;;;;;21.45;63.28;95873.03;1045325;28;19911;-49
2021/06/19 02:01:19;;;;;;;;;;;;;;;21.49;63.28;95868.75;1045414;28;20284;-48
2021/06/19 02:01:49;;;;;;;;;;;;;;;21.47;62.97;95877.06;1045402;28;20277;-49
2021/06/19 02:02:20;;;;;;;;;;;;;;;21.51;63.16;95876.56;1045436;28;19928;-48
2021/06/19 02:02:50;;;;;;;;;;;;;;;21.56;63.18;95874.69;1045477;28;19911;-49
2021/06/19 02:03:20;;;;;;;;;;;;;;;21.49;63.04;95876.78;1044945;28;19911;-48
2021/06/19 02:03:51;;;;;;;;;;;;;;;21.48;63.19;95877.84;1045062;28;20385;-49
2021/06/19 02:04:22;;;;;;;;;;;;;;;21.46;63.25;95877.34;1044787;28;20266;-48
2021/06/19 02:04:52;;;;;;;;;;;;;;;21.48;63.08;95880.53;1045017;28;20297;-48
2021/06/19 02:05:23;;;;;;;;;;;;;;;21.50;62.99;95880.28;1045413;28;19908;-47
2021/06/19 02:05:53;;;;;;;;;;;;;;;21.50;63.37;95888.34;1045303;28;20277;-48
2021/06/19 02:06:23;;;;;;;;;;;;;;;21.52;63.32;95892.34;1045276;28;19904;-48
2021/06/19 02:06:54;;;;;;;;;;;;;;;21.51;63.12;95893.41;1044706;28;19904;-48
2021/06/19 02:07:24;;;;;;;;;;;;;;;21.53;63.12;95893.97;1044769;28;19905;-49
2021/06/19 02:07:55;;;;;;;;;;;;;;;21.52;63.11;95894.25;1045031;28;19908;-47
2021/06/19 02:08:26;;;;;;;;;;;;;;;21.50;62.99;95902.53;1044977;28;19913;-48
2021/06/19 02:09:04;;;;;;;;;;;;;;;21.50;63.19;95899.03;1045644;28;19913;-47
2021/06/19 02:09:35;;;;;;;;;;;;;;;21.50;63.16;95897.19;1045399;28;20380;-47
2021/06/19 02:10:05;;;;;;;;;;;;;;;21.48;63.28;95899.28;1045354;28;19916;-47
2021/06/19 02:10:36;;;;;;;;;;;;;;;21.43;63.44;95896.63;1045384;28;19966;-47
2021/06/19 02:11:07;;;;;;;;;;;;;;;21.48;63.77;95905.47;1045457;28;19908;-48
2021/06/19 02:11:37;;;;;;;;;;;;;;;21.50;63.37;95905.22;1045345;28;19909;-47
2021/06/19 02:12:08;;;;;;;;;;;;;;;21.47;63.24;95903.06;1045339;28;20272;-47
2021/06/19 02:12:38;;;;;;;;;;;;;;;21.44;63.43;95901.72;1045088;28;19908;-48
2021/06/19 02:13:09;;;;;;;;;;;;;;;21.40;63.68;95903.31;1045024;28;20003;-47
2021/06/19 02:13:39;;;;;;;;;;;;;;;21.45;63.67;95899.81;1041094;28;20273;-47
2021/06/19 02:14:12;;;;;;;;;;;;;;;21.47;63.31;95903.84;1041141;28;19909;-47
2021/06/19 02:14:42;;;;;;;;;;;;;;;21.44;63.49;95900.91;1045020;28;19982;-49
2021/06/19 02:15:13;;;;;;;;;;;;;;;21.38;63.77;95894.75;1045291;28;19920;-47
2021/06/19 02:15:44;;;;;;;;;;;;;;;21.39;63.78;95895.56;1045646;28;20254;-47
2021/06/19 02:16:14;;;;;;;;;;;;;;;21.37;64.05;95903.06;1045529;28;19908;-47
2021/06/19 02:16:45;;;;;;;;;;;;;;;21.36;63.89;95898.78;1045319;28;19931;-48
2021/06/19 02:17:15;;;;;;;;;;;;;;;21.38;63.84;95900.13;1045416;28;19901;-48
2021/06/19 02:17:45;;;;;;;;;;;;;;;21.45;64.09;95910.53;1045377;28;19901;-48
2021/06/19 02:18:16;;;;;;;;;;;;;;;21.41;64.16;95901.47;1045300;28;19909;-48
2021/06/19 02:18:46;;;;;;;;;;;;;;;21.45;63.84;95903.31;1045517;28;19915;-47
2021/06/19 02:19:17;;;;;;;;;;;;;;;21.44;63.86;95903.59;1045433;28;19909;-47
2021/06/19 02:19:47;;;;;;;;;;;;;;;21.45;64.13;95903.31;1045752;28;20325;-48
2021/06/19 02:20:18;;;;;;;;;;;;;;;21.47;63.88;95901.19;1045274;28;19909;-47
2021/06/19 02:20:52;;;;;;;;;;;;;;;21.50;63.83;95902.53;1044912;28;19909;-47
2021/06/19 02:21:23;;;;;;;;;;;;;;;21.49;64.03;95900.91;1041039;28;19932;-49
2021/06/19 02:21:53;;;;;;;;;;;;;;;21.52;64.09;95896.91;1041075;28;19916;-48
2021/06/19 02:22:23;;;;;;;;;;;;;;;21.53;63.64;95895.81;1033473;28;20009;-47
2021/06/19 02:22:54;;;;;;;;;;;;;;;21.63;63.78;95895.81;1036915;28;19932;-47
2021/06/19 02:23:24;;;;;;;;;;;;;;;21.60;63.91;95897.16;1040926;28;19909;-48
2021/06/19 02:23:55;;;;;;;;;;;;;;;21.67;63.79;95898.75;1036956;28;20317;-48
2021/06/19 02:24:25;;;;;;;;;;;;;;;21.62;63.68;95905.75;1040586;28;20275;-49
2021/06/19 02:24:55;;;;;;;;;;;;;;;21.60;63.64;95902.50;1040940;28;20440;-51
2021/06/19 02:25:27;;;;;;;;;;;;;;;21.56;63.79;95898.78;1040799;28;19916;-52
2021/06/19 02:25:57;;;;;;;;;;;;;;;21.57;63.83;95908.41;1044908;28;19931;-52
2021/06/19 02:26:27;;;;;;;;;;;;;;;21.57;64.16;95900.38;1045360;28;19917;-49
2021/06/19 02:27:10;;;;;;;;;;;;;;;21.58;63.94;95904.66;1045043;28;19924;-50
2021/06/19 02:27:47;;;;;;;;;;;;;;;21.58;63.90;95903.88;1045143;28;19963;-47
2021/06/19 02:28:19;;;;;;;;;;;;;;;21.61;63.86;95901.44;1044959;28;20007;-51
2021/06/19 02:28:49;;;;;;;;;;;;;;;21.60;63.80;95891.78;1044946;28;19912;-50
2021/06/19 02:29:19;;;;;;;;;;;;;;;21.58;64.04;95899.31;1045026;28;19908;-49
2021/06/19 02:29:50;;;;;;;;;;;;;;;21.64;63.88;95898.22;1045080;28;19927;-49
2021/06/19 02:30:22;;;;;;;;;;;;;;;21.61;63.63;95897.97;1045293;28;19916;-48
2021/06/19 02:30:58;;;;;;;;;;;;;;;21.62;63.84;95899.56;1045396;28;19915;-48
2021/06/19 02:31:28;;;;;;;;;;;;;;;21.54;64.00;95902.78;1045218;28;19909;-50
2021/06/19 02:31:59;;;;;;;;;;;;;;;21.51;64.26;95903.34;1045351;28;20365;-48
2021/06/19 02:32:29;;;;;;;;;;;;;;;21.53;64.15;95901.19;1045426;28;20359;-51
2021/06/19 02:32:59;;;;;;;;;;;;;;;21.56;64.13;95898.78;1045304;28;19991;-50
2021/06/19 02:33:30;;;;;;;;;;;;;;;21.54;64.20;95903.59;1045310;28;19908;-48
2021/06/19 02:34:00;;;;;;;;;;;;;;;21.48;64.40;95897.44;1045332;28;19912;-51
2021/06/19 02:34:31;;;;;;;;;;;;;;;21.50;64.45;95905.22;1045180;28;20432;-49
2021/06/19 02:35:01;;;;;;;;;;;;;;;21.45;64.46;95892.63;1045183;28;19908;-47
2021/06/19 02:35:32;;;;;;;;;;;;;;;21.50;64.55;95894.50;1045362;28;19993;-47
2021/06/19 02:36:03;;;;;;;;;;;;;;;21.51;64.39;95901.47;1045237;28;19909;-51
2021/06/19 02:36:33;;;;;;;;;;;;;;;21.52;64.38;95896.91;1045157;28;19930;-48
2021/06/19 02:37:04;;;;;;;;;;;;;;;21.54;64.23;95898.22;1044844;28;19955;-49
2021/06/19 02:37:34;;;;;;;;;;;;;;;21.50;64.23;95899.88;1045037;28;20380;-51
2021/06/19 02:38:04;;;;;;;;;;;;;;;21.47;64.57;95898.50;1044762;28;19939;-48
2021/06/19 02:38:34;;;;;;;;;;;;;;;21.48;64.64;95899.28;1044927;28;19908;-50
2021/06/19 02:39:05;;;;;;;;;;;;;;;21.55;64.43;95896.38;1045070;28;19987;-49
2021/06/19 02:39:35;;;;;;;;;;;;;;;21.53;64.27;95895.81;1044982;28;19958;-47
2021/06/19 02:40:06;;;;;;;;;;;;;;;21.54;64.44;95903.59;1045067;28;19920;-50